createdAt,value
2019-04-30T00:00:34.760Z,1.70
2019-04-30T00:03:15.934Z,1.80
2019-04-30T00:05:41.677Z,1.53
2019-04-30T00:08:09.935Z,1.53
2019-04-30T00:10:41.127Z,1.80
2019-04-30T00:13:10.405Z,1.50
2019-04-30T00:15:38.607Z,1.50
2019-04-30T00:18:06.852Z,1.60
2019-04-30T00:20:38.603Z,1.60
2019-04-30T00:23:06.419Z,1.50
2019-04-30T00:25:35.474Z,1.77
2019-04-30T00:28:05.221Z,1.70
2019-04-30T00:30:35.029Z,1.60
2019-04-30T00:33:05.660Z,1.63
2019-04-30T00:35:35.410Z,1.60
2019-04-30T00:38:05.087Z,1.77
2019-04-30T00:40:35.216Z,1.77
2019-04-30T00:43:05.257Z,1.77
2019-04-30T00:45:35.381Z,1.70
2019-04-30T00:48:05.859Z,1.60
2019-04-30T00:50:37.119Z,1.67
2019-04-30T00:53:05.902Z,1.90
2019-04-30T00:55:40.248Z,1.63
2019-04-30T00:58:05.810Z,1.63
2019-04-30T01:00:37.155Z,1.90
2019-04-30T01:03:09.417Z,1.60
2019-04-30T01:05:39.547Z,1.57
2019-04-30T01:08:07.224Z,1.83
2019-04-30T01:10:35.628Z,1.80
2019-04-30T01:13:08.193Z,1.90
2019-04-30T01:15:34.230Z,1.60
2019-04-30T01:18:02.896Z,1.70
2019-04-30T01:20:32.935Z,1.70
2019-04-30T01:23:03.190Z,1.73
2019-04-30T01:25:31.679Z,1.57
2019-04-30T01:27:59.940Z,1.70
2019-04-30T01:30:28.520Z,1.87
2019-04-30T01:32:58.809Z,1.87
2019-04-30T01:35:31.242Z,1.80
2019-04-30T01:37:57.199Z,1.80
2019-04-30T01:40:25.464Z,1.60
2019-04-30T01:42:53.699Z,1.87
2019-04-30T01:45:23.256Z,1.77
2019-04-30T01:47:51.932Z,1.57
2019-04-30T01:50:20.273Z,1.60
2019-04-30T01:52:54.580Z,1.70
2019-04-30T01:55:29.417Z,1.53
2019-04-30T01:57:59.404Z,1.50
2019-04-30T02:00:35.373Z,1.60
2019-04-30T02:03:03.633Z,1.60
2019-04-30T02:05:31.898Z,1.70
2019-04-30T02:08:00.165Z,1.70
2019-04-30T02:10:28.633Z,1.87
2019-04-30T02:12:58.925Z,1.80
2019-04-30T02:15:29.028Z,1.73
2019-04-30T02:17:58.701Z,1.63
2019-04-30T02:20:28.640Z,1.70
2019-04-30T02:22:58.631Z,1.90
2019-04-30T02:25:27.124Z,1.70
2019-04-30T02:27:55.701Z,1.70
2019-04-30T02:30:23.953Z,1.77
2019-04-30T02:32:52.682Z,1.87
2019-04-30T02:35:40.668Z,1.60
2019-04-30T02:38:20.185Z,1.63
2019-04-30T02:40:49.772Z,1.87
2019-04-30T02:43:20.342Z,1.60
2019-04-30T02:45:49.797Z,1.80
2019-04-30T02:48:19.817Z,1.50
2019-04-30T02:50:49.125Z,1.70
2019-04-30T02:53:50.539Z,1.70
2019-04-30T02:56:26.527Z,1.63
2019-04-30T02:58:53.586Z,1.60
2019-04-30T03:01:22.001Z,1.70
2019-04-30T03:03:50.405Z,2.03
2019-04-30T03:06:20.412Z,1.60
2019-04-30T03:08:51.077Z,1.67
2019-04-30T03:11:20.706Z,1.83
2019-04-30T03:13:49.603Z,1.83
2019-04-30T03:16:20.775Z,1.70
2019-04-30T03:18:50.994Z,1.70
2019-04-30T03:21:37.099Z,1.73
2019-04-30T03:24:05.372Z,1.63
2019-04-30T03:26:33.889Z,1.80
2019-04-30T03:29:02.405Z,1.90
2019-04-30T03:31:32.386Z,1.77
2019-04-30T03:34:01.984Z,1.77
2019-04-30T03:36:32.590Z,1.50
2019-04-30T03:39:01.129Z,1.90
2019-04-30T03:41:33.117Z,1.77
2019-04-30T03:44:16.786Z,1.90
2019-04-30T03:46:29.884Z,1.70
2019-04-30T03:49:00.190Z,1.80
2019-04-30T03:51:30.271Z,1.70
2019-04-30T03:53:59.532Z,1.80
2019-04-30T03:56:29.870Z,1.80
2019-04-30T03:59:00.246Z,1.80
2019-04-30T04:01:29.635Z,1.80
2019-04-30T04:04:16.061Z,1.90
2019-04-30T04:06:45.958Z,1.90
2019-04-30T04:09:32.399Z,1.63
2019-04-30T04:12:20.556Z,1.97
2019-04-30T04:14:50.992Z,1.90
2019-04-30T04:17:20.246Z,1.60
2019-04-30T04:19:49.923Z,1.70
2019-04-30T04:22:20.559Z,1.80
2019-04-30T04:24:50.434Z,2.00
2019-04-30T04:27:19.363Z,1.90
2019-04-30T04:29:50.558Z,1.60
2019-04-30T04:32:23.605Z,1.90
2019-04-30T04:34:50.398Z,1.70
2019-04-30T04:37:19.772Z,1.77
2019-04-30T04:39:50.036Z,1.83
2019-04-30T04:42:19.458Z,1.80
2019-04-30T04:44:50.321Z,2.13
2019-04-30T04:47:20.007Z,1.83
2019-04-30T04:49:53.123Z,1.80
2019-04-30T04:52:21.620Z,1.70
2019-04-30T04:54:50.649Z,1.70
2019-04-30T04:57:22.286Z,1.90
2019-04-30T04:59:49.898Z,2.20
2019-04-30T05:02:32.140Z,1.67
2019-04-30T05:04:59.973Z,1.80
2019-04-30T05:07:28.817Z,2.10
2019-04-30T05:10:00.522Z,1.83
2019-04-30T05:12:27.392Z,1.83
2019-04-30T05:14:55.944Z,1.70
2019-04-30T05:17:24.213Z,1.80
2019-04-30T05:19:52.462Z,1.80
2019-04-30T05:22:20.721Z,1.70
2019-04-30T05:24:49.017Z,2.00
2019-04-30T05:27:17.252Z,1.80
2019-04-30T05:29:45.526Z,1.77
2019-04-30T05:32:13.767Z,1.97
2019-04-30T05:34:42.028Z,2.10
2019-04-30T05:37:10.292Z,2.00
2019-04-30T05:39:39.071Z,1.93
2019-04-30T05:42:08.806Z,1.83
2019-04-30T05:44:39.455Z,2.20
2019-04-30T05:47:09.197Z,2.17
2019-04-30T05:49:38.882Z,1.97
2019-04-30T05:52:09.106Z,2.03
2019-04-30T05:54:39.046Z,1.80
2019-04-30T05:57:09.409Z,2.00
2019-04-30T05:59:38.790Z,1.83
2019-04-30T06:02:08.877Z,1.70
2019-04-30T06:04:38.745Z,2.13
2019-04-30T06:07:08.604Z,1.90
2019-04-30T06:09:38.627Z,1.90
2019-04-30T06:12:11.236Z,1.90
2019-04-30T06:14:51.636Z,1.80
2019-04-30T06:17:23.632Z,2.13
2019-04-30T06:19:51.897Z,1.90
2019-04-30T06:22:20.475Z,1.97
2019-04-30T06:24:49.538Z,1.97
2019-04-30T06:27:19.114Z,1.60
2019-04-30T06:29:49.020Z,1.90
2019-04-30T06:32:18.662Z,1.80
2019-04-30T06:34:49.588Z,1.70
2019-04-30T06:37:19.266Z,1.90
2019-04-30T06:39:47.201Z,2.10
2019-04-30T06:42:15.436Z,1.60
2019-04-30T06:44:43.710Z,1.80
2019-04-30T06:47:11.956Z,2.00
2019-04-30T06:49:40.228Z,1.90
2019-04-30T06:52:19.947Z,1.70
2019-04-30T06:54:39.674Z,1.83
2019-04-30T06:57:09.741Z,2.00
2019-04-30T06:59:39.549Z,2.07
2019-04-30T07:02:09.072Z,2.00
2019-04-30T07:04:37.603Z,2.10
2019-04-30T07:07:05.888Z,2.13
2019-04-30T07:09:58.361Z,2.00
2019-04-30T07:12:41.216Z,2.00
2019-04-30T07:15:09.584Z,1.97
2019-04-30T07:17:40.567Z,2.00
2019-04-30T07:20:07.901Z,2.03
2019-04-30T07:22:40.781Z,2.03
2019-04-30T07:25:06.719Z,1.90
2019-04-30T07:27:34.963Z,1.97
2019-04-30T07:30:03.482Z,1.90
2019-04-30T07:32:31.763Z,2.10
2019-04-30T07:35:00.498Z,2.17
2019-04-30T07:37:29.419Z,2.00
2019-04-30T07:39:58.935Z,2.17
2019-04-30T07:42:29.439Z,1.90
2019-04-30T07:45:00.421Z,2.03
2019-04-30T07:47:29.579Z,2.30
2019-04-30T07:50:00.452Z,2.30
2019-04-30T07:52:33.289Z,2.10
2019-04-30T07:55:00.465Z,2.10
2019-04-30T07:57:29.257Z,1.90
2019-04-30T08:00:00.535Z,1.97
2019-04-30T08:02:29.844Z,2.20
2019-04-30T08:05:01.254Z,1.90
2019-04-30T08:07:30.122Z,2.10
2019-04-30T08:09:59.049Z,2.07
2019-04-30T08:12:32.004Z,2.00
2019-04-30T08:14:59.442Z,1.93
2019-04-30T08:17:28.915Z,2.30
2019-04-30T08:19:58.831Z,2.10
2019-04-30T08:22:27.143Z,2.20
2019-04-30T08:24:55.396Z,1.90
2019-04-30T08:27:24.109Z,2.23
2019-04-30T08:29:52.385Z,2.13
2019-04-30T08:32:21.069Z,2.17
2019-04-30T08:34:50.140Z,2.10
2019-04-30T08:37:20.285Z,2.20
2019-04-30T08:39:49.647Z,2.13
2019-04-30T08:42:28.935Z,2.27
2019-04-30T08:44:48.589Z,2.10
2019-04-30T08:47:20.957Z,2.00
2019-04-30T08:49:47.233Z,2.20
2019-04-30T08:52:19.091Z,2.07
2019-04-30T08:54:49.430Z,2.10
2019-04-30T08:57:19.100Z,2.20
2019-04-30T08:59:49.333Z,2.10
2019-04-30T09:02:19.561Z,2.17
2019-04-30T09:04:49.507Z,2.43
2019-04-30T09:07:19.674Z,2.30
2019-04-30T09:09:48.870Z,2.13
2019-04-30T09:12:19.435Z,2.27
2019-04-30T09:14:49.043Z,2.20
2019-04-30T09:17:19.658Z,2.10
2019-04-30T09:19:49.018Z,2.30
2019-04-30T09:22:19.306Z,2.00
2019-04-30T09:24:49.540Z,1.90
2019-04-30T09:27:19.565Z,1.90
2019-04-30T09:29:49.250Z,2.20
2019-04-30T09:32:19.346Z,2.13
2019-04-30T09:34:48.839Z,2.00
2019-04-30T09:37:18.719Z,2.13
2019-04-30T09:39:49.236Z,2.33
2019-04-30T09:42:19.271Z,1.90
2019-04-30T09:44:49.149Z,2.27
2019-04-30T09:47:17.296Z,2.30
2019-04-30T09:49:45.557Z,2.13
2019-04-30T09:52:14.013Z,2.20
2019-04-30T09:54:42.341Z,2.40
2019-04-30T09:57:11.428Z,2.40
2019-04-30T09:59:39.933Z,2.30
2019-04-30T10:02:09.458Z,2.30
2019-04-30T10:04:39.725Z,2.20
2019-04-30T10:07:09.579Z,2.10
2019-04-30T10:09:37.717Z,2.30
2019-04-30T10:12:09.536Z,2.43
2019-04-30T10:14:40.837Z,2.20
2019-04-30T10:17:09.630Z,2.10
2019-04-30T10:19:39.343Z,1.80
2019-04-30T10:22:08.970Z,2.47
2019-04-30T10:24:39.217Z,2.20
2019-04-30T10:27:12.897Z,2.07
2019-04-30T10:29:39.489Z,2.00
2019-04-30T10:32:08.825Z,2.00
2019-04-30T10:34:37.594Z,2.17
2019-04-30T10:37:05.857Z,2.07
2019-04-30T10:39:34.114Z,2.00
2019-04-30T10:42:02.545Z,2.20
2019-04-30T10:44:30.788Z,2.03
2019-04-30T10:46:59.395Z,2.20
2019-04-30T10:49:29.179Z,2.00
2019-04-30T10:51:59.383Z,2.13
2019-04-30T10:54:28.993Z,2.10
2019-04-30T10:56:59.142Z,1.90
2019-04-30T10:59:27.426Z,1.90
2019-04-30T11:01:55.731Z,2.20
2019-04-30T11:04:24.018Z,2.10
2019-04-30T11:06:52.269Z,2.20
2019-04-30T11:09:20.717Z,2.03
2019-04-30T11:11:49.699Z,2.27
2019-04-30T11:14:18.194Z,2.17
2019-04-30T11:16:46.679Z,2.30
2019-04-30T11:19:15.379Z,2.20
2019-04-30T11:21:44.057Z,2.10
2019-04-30T11:24:12.650Z,1.97
2019-04-30T11:26:41.869Z,2.20
2019-04-30T11:29:10.812Z,2.07
2019-04-30T11:31:40.998Z,2.20
2019-04-30T11:34:09.420Z,2.10
2019-04-30T11:36:38.994Z,1.90
2019-04-30T11:39:10.283Z,2.00
2019-04-30T11:41:39.511Z,2.10
2019-04-30T11:44:09.259Z,1.90
2019-04-30T11:46:59.462Z,2.13
2019-04-30T11:49:27.588Z,2.00
2019-04-30T11:51:56.121Z,2.20
2019-04-30T11:54:24.377Z,2.13
2019-04-30T11:56:52.721Z,2.20
2019-04-30T11:59:21.981Z,2.33
2019-04-30T12:01:51.909Z,2.10
2019-04-30T12:04:20.174Z,2.00
2019-04-30T12:06:48.692Z,2.13
2019-04-30T12:09:21.141Z,2.20
2019-04-30T12:11:50.690Z,2.20
2019-04-30T12:14:20.297Z,2.10
2019-04-30T12:16:50.215Z,2.20
2019-04-30T12:19:18.960Z,2.33
2019-04-30T12:21:47.307Z,2.00
2019-04-30T12:24:15.568Z,2.17
2019-04-30T12:26:43.830Z,2.00
2019-04-30T12:29:12.088Z,2.40
2019-04-30T12:31:40.332Z,2.40
2019-04-30T12:34:08.581Z,2.30
2019-04-30T12:36:38.713Z,2.40
2019-04-30T12:39:06.833Z,2.00
2019-04-30T12:41:35.089Z,2.30
2019-04-30T12:44:03.996Z,2.40
2019-04-30T12:46:32.267Z,1.97
2019-04-30T12:49:04.813Z,2.30
2019-04-30T12:51:50.934Z,2.20
2019-04-30T12:54:26.984Z,2.60
2019-04-30T12:57:02.815Z,2.17
2019-04-30T12:59:31.163Z,2.33
2019-04-30T13:01:59.449Z,2.10
2019-04-30T13:04:29.347Z,2.40
2019-04-30T13:07:01.579Z,2.17
2019-04-30T13:09:30.251Z,2.23
2019-04-30T13:12:00.559Z,2.13
2019-04-30T13:14:30.110Z,2.10
2019-04-30T13:16:59.025Z,2.50
2019-04-30T13:19:27.392Z,2.50
2019-04-30T13:21:55.649Z,2.33
2019-04-30T13:24:23.937Z,2.30
2019-04-30T13:26:52.352Z,2.23
2019-04-30T13:29:31.449Z,2.33
2019-04-30T13:31:59.733Z,2.00
2019-04-30T13:34:44.618Z,2.27
2019-04-30T13:37:12.946Z,2.10
2019-04-30T13:39:53.142Z,2.20
2019-04-30T13:42:23.324Z,2.57
2019-04-30T13:44:51.569Z,2.37
2019-04-30T13:47:19.807Z,2.33
2019-04-30T13:49:49.508Z,2.27
2019-04-30T13:52:17.993Z,2.40
2019-04-30T13:54:46.349Z,2.40
2019-04-30T13:57:14.627Z,2.30
2019-04-30T13:59:42.864Z,2.20
2019-04-30T14:02:11.114Z,2.40
2019-04-30T14:04:41.017Z,2.10
2019-04-30T14:07:27.505Z,2.00
2019-04-30T14:09:55.933Z,2.20
2019-04-30T14:12:24.566Z,2.20
2019-04-30T14:14:52.906Z,2.40
2019-04-30T14:17:21.145Z,2.53
2019-04-30T14:19:49.413Z,2.40
2019-04-30T14:22:17.666Z,2.43
2019-04-30T14:24:45.920Z,2.60
2019-04-30T14:27:14.262Z,2.30
2019-04-30T14:29:42.517Z,2.30
2019-04-30T14:32:10.789Z,2.20
2019-04-30T14:34:39.602Z,2.40
2019-04-30T14:37:08.028Z,2.40
2019-04-30T14:39:36.524Z,2.30
2019-04-30T14:42:05.472Z,2.40
2019-04-30T14:44:36.869Z,2.37
2019-04-30T14:47:12.375Z,2.30
2019-04-30T14:49:44.122Z,2.80
2019-04-30T14:52:12.875Z,2.30
2019-04-30T14:54:50.433Z,2.60
2019-04-30T14:57:23.173Z,2.40
2019-04-30T14:59:56.116Z,2.50
2019-04-30T15:02:31.970Z,2.60
2019-04-30T15:05:00.324Z,2.30
2019-04-30T15:07:29.580Z,2.40
2019-04-30T15:09:58.025Z,2.53
2019-04-30T15:12:26.273Z,2.60
2019-04-30T15:14:54.545Z,2.70
2019-04-30T15:17:22.785Z,2.53
2019-04-30T15:19:54.237Z,2.70
2019-04-30T15:22:21.084Z,2.60
2019-04-30T15:24:49.359Z,2.70
2019-04-30T15:27:19.159Z,2.70
2019-04-30T15:29:56.607Z,2.50
2019-04-30T15:32:18.575Z,2.50
2019-04-30T15:34:48.943Z,2.70
2019-04-30T15:37:21.706Z,2.60
2019-04-30T15:39:48.873Z,2.70
2019-04-30T15:42:18.657Z,2.40
2019-04-30T15:44:46.917Z,2.70
2019-04-30T15:47:15.436Z,3.00
2019-04-30T15:49:43.701Z,2.90
2019-04-30T15:52:11.969Z,2.30
2019-04-30T15:54:40.233Z,2.70
2019-04-30T15:57:08.910Z,2.90
2019-04-30T15:59:39.457Z,2.53
2019-04-30T16:02:18.825Z,2.87
2019-04-30T16:05:07.007Z,2.73
2019-04-30T16:07:36.919Z,2.60
2019-04-30T16:10:28.534Z,2.60
2019-04-30T16:12:58.884Z,2.90
2019-04-30T16:15:27.308Z,2.50
2019-04-30T16:17:58.828Z,2.60
2019-04-30T16:20:29.932Z,2.80
2019-04-30T16:22:59.080Z,2.57
2019-04-30T16:25:27.469Z,2.60
2019-04-30T16:27:55.738Z,2.60
2019-04-30T16:30:24.028Z,2.80
2019-04-30T16:32:52.264Z,2.57
2019-04-30T16:35:20.549Z,2.80
2019-04-30T16:37:49.621Z,2.70
2019-04-30T16:40:19.022Z,2.80
2019-04-30T16:42:48.967Z,2.90
2019-04-30T16:45:18.895Z,2.80
2019-04-30T16:47:47.561Z,2.93
2019-04-30T16:50:16.142Z,3.00
2019-04-30T16:52:44.398Z,2.67
2019-04-30T16:55:12.656Z,2.90
2019-04-30T16:57:41.278Z,2.80
2019-04-30T17:00:09.575Z,2.90
2019-04-30T17:02:39.501Z,3.20
2019-04-30T17:05:15.929Z,2.63
2019-04-30T17:07:45.860Z,2.73
2019-04-30T17:10:18.915Z,2.70
2019-04-30T17:12:51.241Z,2.77
2019-04-30T17:15:23.301Z,2.73
2019-04-30T17:17:51.871Z,2.93
2019-04-30T17:20:20.918Z,2.83
2019-04-30T17:22:49.745Z,2.93
2019-04-30T17:25:18.959Z,2.67
2019-04-30T17:27:47.455Z,2.80
2019-04-30T17:30:15.814Z,2.60
2019-04-30T17:32:44.086Z,3.00
2019-04-30T17:35:12.359Z,2.80
2019-04-30T17:37:40.662Z,3.03
2019-04-30T17:40:09.542Z,2.90
2019-04-30T17:42:37.936Z,2.90
2019-04-30T17:45:09.306Z,2.90
2019-04-30T17:47:37.426Z,2.80
2019-04-30T17:50:06.264Z,3.00
2019-04-30T17:52:34.508Z,2.90
2019-04-30T17:55:03.148Z,3.10
2019-04-30T17:57:34.564Z,3.00
2019-04-30T18:00:01.897Z,2.93
2019-04-30T18:02:31.705Z,3.30
2019-04-30T18:05:00.027Z,3.17
2019-04-30T18:07:29.601Z,3.07
2019-04-30T18:09:58.660Z,3.20
2019-04-30T18:12:26.968Z,3.43
2019-04-30T18:14:55.233Z,3.37
2019-04-30T18:17:25.206Z,3.87
2019-04-30T18:20:03.877Z,3.33
2019-04-30T18:22:42.848Z,3.40
2019-04-30T18:25:15.693Z,3.67
2019-04-30T18:27:49.492Z,3.83
2019-04-30T18:30:21.220Z,3.60
2019-04-30T18:32:49.674Z,3.83
2019-04-30T18:35:20.068Z,3.73
2019-04-30T18:37:48.634Z,3.73
2019-04-30T18:40:18.656Z,3.97
2019-04-30T18:42:49.326Z,3.80
2019-04-30T18:45:19.283Z,4.03
2019-04-30T18:47:47.405Z,3.67
2019-04-30T18:50:15.958Z,3.77
2019-04-30T18:52:44.215Z,3.53
2019-04-30T18:55:12.537Z,4.20
2019-04-30T18:57:40.834Z,4.10
2019-04-30T19:00:10.008Z,3.87
2019-04-30T19:02:40.373Z,4.20
2019-04-30T19:05:10.082Z,3.90
2019-04-30T19:07:39.995Z,4.23
2019-04-30T19:10:25.056Z,4.07
2019-04-30T19:12:56.350Z,4.50
2019-04-30T19:15:54.562Z,4.13
2019-04-30T19:18:10.005Z,3.93
2019-04-30T19:20:45.582Z,4.20
2019-04-30T19:23:14.114Z,3.87
2019-04-30T19:25:42.389Z,4.63
2019-04-30T19:28:14.291Z,4.00
2019-04-30T19:30:40.635Z,4.40
2019-04-30T19:33:08.902Z,4.70
2019-04-30T19:35:37.150Z,4.40
2019-04-30T19:38:05.483Z,4.47
2019-04-30T19:40:34.021Z,4.27
2019-04-30T19:43:02.602Z,4.50
2019-04-30T19:45:30.856Z,4.30
2019-04-30T19:47:59.129Z,4.60
2019-04-30T19:50:27.497Z,4.23
2019-04-30T19:52:55.854Z,4.67
2019-04-30T19:55:24.105Z,4.33
2019-04-30T19:57:52.356Z,4.50
2019-04-30T20:00:20.962Z,4.50
2019-04-30T20:02:49.533Z,4.17
2019-04-30T20:05:19.428Z,4.60
2019-04-30T20:07:49.325Z,4.50
2019-04-30T20:10:19.417Z,4.50
2019-04-30T20:12:49.746Z,4.57
2019-04-30T20:15:21.667Z,4.80
2019-04-30T20:17:49.718Z,4.63
2019-04-30T20:20:18.909Z,4.37
2019-04-30T20:22:47.364Z,4.53
2019-04-30T20:25:15.614Z,4.93
2019-04-30T20:27:43.861Z,4.53
2019-04-30T20:30:12.127Z,4.77
2019-04-30T20:32:40.369Z,4.97
2019-04-30T20:35:09.733Z,4.63
2019-04-30T20:37:56.218Z,4.80
2019-04-30T20:40:26.357Z,5.13
2019-04-30T20:42:55.042Z,4.77
2019-04-30T20:45:23.451Z,4.70
2019-04-30T20:47:51.705Z,4.67
2019-04-30T20:50:19.988Z,5.40
2019-04-30T20:52:49.049Z,4.53
2019-04-30T20:55:17.425Z,5.23
2019-04-30T20:57:45.661Z,5.20
2019-04-30T21:00:13.927Z,4.93
2019-04-30T21:02:42.576Z,5.30
2019-04-30T21:05:11.265Z,5.50
2019-04-30T21:07:39.565Z,5.10
2019-04-30T21:10:09.996Z,5.00
2019-04-30T21:12:39.677Z,5.13
2019-04-30T21:15:09.667Z,5.20
2019-04-30T21:17:38.130Z,5.30
2019-04-30T21:20:06.394Z,5.00
2019-04-30T21:22:34.639Z,5.27
2019-04-30T21:25:03.250Z,5.10
2019-04-30T21:27:31.524Z,5.13
2019-04-30T21:29:59.832Z,5.20
2019-04-30T21:32:29.749Z,5.43
2019-04-30T21:35:16.281Z,5.47
2019-04-30T21:37:44.544Z,5.37
2019-04-30T21:40:13.137Z,5.60
2019-04-30T21:42:41.412Z,5.10
2019-04-30T21:45:09.658Z,4.97
2019-04-30T21:47:37.920Z,5.30
2019-04-30T21:50:06.189Z,5.30
2019-04-30T21:52:34.453Z,5.30
2019-04-30T21:55:02.729Z,5.50
2019-04-30T21:57:31.021Z,5.73
2019-04-30T21:59:59.564Z,5.23
2019-04-30T22:02:27.840Z,5.20
2019-04-30T22:04:56.101Z,5.47
2019-04-30T22:07:24.567Z,5.50
2019-04-30T22:09:53.102Z,5.40
2019-04-30T22:12:21.485Z,5.50
2019-04-30T22:14:49.784Z,5.40
2019-04-30T22:17:19.271Z,5.20
2019-04-30T22:19:49.130Z,5.60
2019-04-30T22:22:19.263Z,5.20
2019-04-30T22:24:49.316Z,5.37
2019-04-30T22:27:17.686Z,5.53
2019-04-30T22:29:45.929Z,5.57
2019-04-30T22:32:14.185Z,5.30
2019-04-30T22:34:42.457Z,5.30
2019-04-30T22:37:10.988Z,5.67
2019-04-30T22:39:46.909Z,5.57
2019-04-30T22:42:20.695Z,5.50
2019-04-30T22:44:49.020Z,5.77
2019-04-30T22:47:17.287Z,5.50
2019-04-30T22:49:45.530Z,5.93
2019-04-30T22:52:13.792Z,5.93
2019-04-30T22:54:42.055Z,5.63
2019-04-30T22:57:10.309Z,5.43
2019-04-30T22:59:49.543Z,5.50
2019-04-30T23:02:11.120Z,5.43
2019-04-30T23:04:41.013Z,5.57
2019-04-30T23:07:09.297Z,5.80
2019-04-30T23:09:37.557Z,6.13
2019-04-30T23:12:06.205Z,5.33
2019-04-30T23:14:34.469Z,5.70
2019-04-30T23:17:03.265Z,5.90
2019-04-30T23:19:31.864Z,5.97
2019-04-30T23:22:00.137Z,5.70
2019-04-30T23:24:28.384Z,5.83
2019-04-30T23:26:56.655Z,6.13
2019-04-30T23:29:24.893Z,6.20
2019-04-30T23:31:53.142Z,5.37
2019-04-30T23:34:21.689Z,5.57
2019-04-30T23:36:49.921Z,6.10
2019-04-30T23:39:18.169Z,5.47
2019-04-30T23:41:46.754Z,5.90
2019-04-30T23:44:15.041Z,6.10
2019-04-30T23:46:43.289Z,6.10
2019-04-30T23:49:11.549Z,6.40
2019-04-30T23:51:39.806Z,6.10
2019-04-30T23:54:08.077Z,6.40
2019-04-30T23:56:36.345Z,5.77
2019-04-30T23:59:04.611Z,6.13
